• Join FlightAware (Why Join?)
  • Login
  • US Flag 
01:40AM EDT


 

Airport Tracker/Info


-or-


 

Live Flight TrackerFlight Track Log ✈ N608SM ✈ 13-May-2013 ✈ KSVH - KHKY

Flight Track Log - Related Links

Times and Time Zones

All times are in EDT time to prevent confusion due to time zone crossing. See the N608SM flight status page for this flight to view local times or setup timezone preferences in your user account.

Time Position Orientation Groundspeed Altitude Reporting Facility
EDT Latitude Longitude Course Direction KTS MPH feet Rate Location/Type
11:33AM 35.7933 -81.0000 332° Northwest 108 124 3,500  Level Atlanta Center
11:34AM 35.8378 -81.0289 332° Northwest 154 177 3,900 180 Climbing Atlanta Center
11:35AM 35.8847 -81.0708 324° Northwest 192 221 3,900  Level Atlanta Center
11:36AM 35.8761 -81.1428 262° West 198 228 3,900  Level Atlanta Center
11:37AM 35.8461 -81.1978 236° Southwest 198 228 3,900  Level Atlanta Center
11:38AM 35.8219 -81.2422 236° Southwest 183 211 4,000 -360 Climbing Atlanta Center
11:39AM 35.8042 -81.2786 239° Southwest 152 175 3,200 -780 Descending Atlanta Center
11:40AM 35.7839 -81.3150 236° Southwest 139 160 2,500 -720 Descending Atlanta Center
11:41AM 35.7639 -81.3492 234° Southwest 134 154 1,800 -540 Descending Atlanta Center
11:42AM 35.7439 -81.3831 234° Southwest 129 148 1,500 600 Descending Atlanta Center
11:43AM 35.7425 -81.4264 268° West 137 158 3,100 1,200 Climbing Atlanta Center
11:44AM 35.7786 -81.4533 329° Northwest 126 145 3,900 360 Climbing Atlanta Center
11:45AM 35.8253 -81.4828 333° Northwest 169 194 3,900  Level Atlanta Center
11:46AM 35.8756 -81.4992 345° North 187 215 3,900  Level Atlanta Center
11:47AM 35.8700 -81.4378 96° East 143 165 3,900  Level Atlanta Center
11:48AM 35.8644 -81.3689 96° East 173 199 3,900  Level Atlanta Center
11:49AM 35.8669 -81.2944 88° East 196 226 3,900  Level Atlanta Center
11:50AM 35.8694 -81.2250 87° East 196 226 4,000  Climbing Atlanta Center
11:51AM 35.8278 -81.2214 176° South 110 127 3,900 -60 Descending Atlanta Center
11:52AM 35.8492 -81.2464 317° Northwest 73 84 3,900  Level Atlanta Center
11:53AM 35.8883 -81.2219 27° Northeast 117 135 3,900  Level Atlanta Center
11:54AM 35.9258 -81.2283 352° North 143 165 3,900  Level Atlanta Center
11:55AM 35.8847 -81.2450 198° South 117 135 3,900  Level Atlanta Center
11:56AM 35.8508 -81.2206 150° Southeast 132 152 3,900  Level Atlanta Center
11:57AM 35.8817 -81.2042 23° Northeast 66 76 3,900  Level Atlanta Center
11:58AM 35.9256 -81.2103 354° North 115 132 3,900  Level Atlanta Center
11:59AM 35.9075 -81.2392 232° Southwest 89 102 3,900  Level Atlanta Center
12:00PM 35.8656 -81.2331 173° South 92 106 3,900 -180 Level Atlanta Center
12:01PM 35.8392 -81.2697 228° Southwest 120 138 3,600 -600 Descending Atlanta Center
12:02PM 35.8108 -81.3064 226° Southwest 147 169 2,800 -600 Descending Atlanta Center
12:03PM 35.7864 -81.3356 224° Southwest 138 159 2,400 -600 Descending Atlanta Center
12:04PM 35.7619 -81.3619 221° Southwest 128 147 1,700 -420 Descending Atlanta Center
12:05PM 35.7503 -81.3981 248° West 122 140 1,600 -120 Descending Atlanta Center
12:06PM 35.7297 -81.4117 208° Southwest 97 112 1,500 -60 Descending Atlanta Center
12:07PM 35.7458 -81.3803 58° Northeast 36 41 1,500 300 Level Atlanta Center
12:08PM 35.7792 -81.3792 North 97 112 2,100 300 Climbing Atlanta Center
12:09PM 35.7656 -81.4231 249° West 69 79 2,100 -240 Level Atlanta Center
12:10PM 35.7322 -81.4242 182° South 86 99 1,700 -480 Descending Atlanta Center
12:11PM 35.7211 -81.4017 121° Southeast 78 90 1,200 -540 Descending Atlanta Center